sensor_id;sensor_type;location;lat;lon;timestamp;P1;durP1;ratioP1;P2;durP2;ratioP2
9761;SDS011;4920;49.594;11.022;2022-10-29T00:00:54;8.77;;;4.80;;
9761;SDS011;4920;49.594;11.022;2022-10-29T00:03:23;8.07;;;4.97;;
9761;SDS011;4920;49.594;11.022;2022-10-29T00:05:58;8.10;;;4.90;;
9761;SDS011;4920;49.594;11.022;2022-10-29T00:08:27;11.40;;;4.87;;
9761;SDS011;4920;49.594;11.022;2022-10-29T00:11:03;10.07;;;4.77;;
9761;SDS011;4920;49.594;11.022;2022-10-29T00:13:33;10.50;;;5.13;;
9761;SDS011;4920;49.594;11.022;2022-10-29T00:16:05;12.40;;;5.07;;
9761;SDS011;4920;49.594;11.022;2022-10-29T00:18:34;11.13;;;5.00;;
9761;SDS011;4920;49.594;11.022;2022-10-29T00:21:05;9.30;;;4.60;;
9761;SDS011;4920;49.594;11.022;2022-10-29T00:23:36;9.77;;;5.07;;
9761;SDS011;4920;49.594;11.022;2022-10-29T00:26:04;10.23;;;5.20;;
9761;SDS011;4920;49.594;11.022;2022-10-29T00:28:33;11.73;;;4.90;;
9761;SDS011;4920;49.594;11.022;2022-10-29T00:31:02;10.03;;;4.80;;
9761;SDS011;4920;49.594;11.022;2022-10-29T00:33:31;12.03;;;5.10;;
9761;SDS011;4920;49.594;11.022;2022-10-29T00:36:00;14.23;;;5.20;;
9761;SDS011;4920;49.594;11.022;2022-10-29T00:38:32;12.47;;;5.33;;
9761;SDS011;4920;49.594;11.022;2022-10-29T00:41:02;8.87;;;5.00;;
9761;SDS011;4920;49.594;11.022;2022-10-29T00:43:32;9.93;;;5.00;;
9761;SDS011;4920;49.594;11.022;2022-10-29T00:46:02;10.50;;;5.00;;
9761;SDS011;4920;49.594;11.022;2022-10-29T00:48:33;16.40;;;5.03;;
9761;SDS011;4920;49.594;11.022;2022-10-29T00:51:06;8.97;;;5.07;;
9761;SDS011;4920;49.594;11.022;2022-10-29T00:53:39;12.77;;;5.17;;
9761;SDS011;4920;49.594;11.022;2022-10-29T00:56:10;10.93;;;5.07;;
9761;SDS011;4920;49.594;11.022;2022-10-29T00:58:40;11.07;;;4.90;;
9761;SDS011;4920;49.594;11.022;2022-10-29T01:01:08;10.27;;;5.20;;
9761;SDS011;4920;49.594;11.022;2022-10-29T01:03:37;9.27;;;5.43;;
9761;SDS011;4920;49.594;11.022;2022-10-29T01:06:06;11.27;;;5.13;;
9761;SDS011;4920;49.594;11.022;2022-10-29T01:08:35;11.53;;;5.10;;
9761;SDS011;4920;49.594;11.022;2022-10-29T01:11:06;10.57;;;5.00;;
9761;SDS011;4920;49.594;11.022;2022-10-29T01:13:52;10.43;;;5.40;;
9761;SDS011;4920;49.594;11.022;2022-10-29T01:16:31;6.73;;;5.00;;
9761;SDS011;4920;49.594;11.022;2022-10-29T01:19:10;13.27;;;5.10;;
9761;SDS011;4920;49.594;11.022;2022-10-29T01:21:42;13.43;;;5.40;;
9761;SDS011;4920;49.594;11.022;2022-10-29T01:24:17;13.53;;;4.90;;
9761;SDS011;4920;49.594;11.022;2022-10-29T01:27:32;11.60;;;5.27;;
9761;SDS011;4920;49.594;11.022;2022-10-29T01:30:19;12.63;;;5.20;;
9761;SDS011;4920;49.594;11.022;2022-10-29T01:33:05;13.77;;;5.40;;
9761;SDS011;4920;49.594;11.022;2022-10-29T01:35:46;10.03;;;5.40;;
9761;SDS011;4920;49.594;11.022;2022-10-29T01:38:21;8.03;;;4.73;;
9761;SDS011;4920;49.594;11.022;2022-10-29T01:40:54;12.37;;;5.30;;
9761;SDS011;4920;49.594;11.022;2022-10-29T01:43:30;10.17;;;5.60;;
9761;SDS011;4920;49.594;11.022;2022-10-29T01:46:04;10.63;;;5.17;;
9761;SDS011;4920;49.594;11.022;2022-10-29T01:48:38;9.87;;;5.33;;
9761;SDS011;4920;49.594;11.022;2022-10-29T01:51:11;13.17;;;5.70;;
9761;SDS011;4920;49.594;11.022;2022-10-29T01:53:45;10.57;;;4.90;;
9761;SDS011;4920;49.594;11.022;2022-10-29T01:56:14;11.87;;;4.90;;
9761;SDS011;4920;49.594;11.022;2022-10-29T01:58:43;11.20;;;5.30;;
9761;SDS011;4920;49.594;11.022;2022-10-29T02:01:17;9.37;;;5.07;;
9761;SDS011;4920;49.594;11.022;2022-10-29T02:03:59;10.90;;;5.60;;
9761;SDS011;4920;49.594;11.022;2022-10-29T02:06:39;12.33;;;5.70;;
9761;SDS011;4920;49.594;11.022;2022-10-29T02:09:14;13.43;;;5.30;;
9761;SDS011;4920;49.594;11.022;2022-10-29T02:11:49;15.27;;;5.40;;
9761;SDS011;4920;49.594;11.022;2022-10-29T02:14:24;9.83;;;5.20;;
9761;SDS011;4920;49.594;11.022;2022-10-29T02:16:58;12.57;;;5.83;;
9761;SDS011;4920;49.594;11.022;2022-10-29T02:19:29;9.97;;;5.10;;
9761;SDS011;4920;49.594;11.022;2022-10-29T02:21:58;9.97;;;5.13;;
9761;SDS011;4920;49.594;11.022;2022-10-29T02:24:26;11.13;;;5.00;;
9761;SDS011;4920;49.594;11.022;2022-10-29T02:26:55;12.70;;;5.50;;
9761;SDS011;4920;49.594;11.022;2022-10-29T02:29:23;9.10;;;5.17;;
9761;SDS011;4920;49.594;11.022;2022-10-29T02:31:51;8.53;;;5.07;;
9761;SDS011;4920;49.594;11.022;2022-10-29T02:34:19;9.07;;;5.20;;
9761;SDS011;4920;49.594;11.022;2022-10-29T02:36:53;13.00;;;5.30;;
9761;SDS011;4920;49.594;11.022;2022-10-29T02:39:21;11.57;;;5.37;;
9761;SDS011;4920;49.594;11.022;2022-10-29T02:41:49;9.67;;;5.07;;
9761;SDS011;4920;49.594;11.022;2022-10-29T02:44:17;9.90;;;5.30;;
9761;SDS011;4920;49.594;11.022;2022-10-29T02:46:45;11.40;;;5.30;;
9761;SDS011;4920;49.594;11.022;2022-10-29T02:49:14;9.80;;;4.83;;
9761;SDS011;4920;49.594;11.022;2022-10-29T02:51:42;10.23;;;5.10;;
9761;SDS011;4920;49.594;11.022;2022-10-29T02:54:12;10.50;;;5.00;;
9761;SDS011;4920;49.594;11.022;2022-10-29T02:56:40;11.40;;;5.17;;
9761;SDS011;4920;49.594;11.022;2022-10-29T02:59:08;10.40;;;5.43;;
9761;SDS011;4920;49.594;11.022;2022-10-29T03:01:37;10.90;;;5.40;;
9761;SDS011;4920;49.594;11.022;2022-10-29T03:04:05;11.30;;;4.80;;
9761;SDS011;4920;49.594;11.022;2022-10-29T03:06:34;12.77;;;5.50;;
9761;SDS011;4920;49.594;11.022;2022-10-29T03:09:03;10.37;;;5.67;;
9761;SDS011;4920;49.594;11.022;2022-10-29T03:11:33;10.83;;;5.13;;
9761;SDS011;4920;49.594;11.022;2022-10-29T03:14:01;9.77;;;5.47;;
9761;SDS011;4920;49.594;11.022;2022-10-29T03:16:30;13.40;;;5.07;;
9761;SDS011;4920;49.594;11.022;2022-10-29T03:18:58;9.50;;;5.47;;
9761;SDS011;4920;49.594;11.022;2022-10-29T03:21:26;11.17;;;5.50;;
9761;SDS011;4920;49.594;11.022;2022-10-29T03:23:54;10.37;;;5.27;;
9761;SDS011;4920;49.594;11.022;2022-10-29T03:26:23;14.83;;;5.60;;
9761;SDS011;4920;49.594;11.022;2022-10-29T03:28:52;11.40;;;5.23;;
9761;SDS011;4920;49.594;11.022;2022-10-29T03:31:22;10.57;;;5.57;;
9761;SDS011;4920;49.594;11.022;2022-10-29T03:33:50;11.53;;;5.37;;
9761;SDS011;4920;49.594;11.022;2022-10-29T03:36:18;13.83;;;5.43;;
9761;SDS011;4920;49.594;11.022;2022-10-29T03:38:47;10.90;;;5.80;;
9761;SDS011;4920;49.594;11.022;2022-10-29T03:41:15;11.63;;;5.17;;
9761;SDS011;4920;49.594;11.022;2022-10-29T03:43:43;9.90;;;5.60;;
9761;SDS011;4920;49.594;11.022;2022-10-29T03:46:13;10.17;;;5.63;;
9761;SDS011;4920;49.594;11.022;2022-10-29T03:48:41;12.00;;;5.50;;
9761;SDS011;4920;49.594;11.022;2022-10-29T03:51:09;10.53;;;5.30;;
9761;SDS011;4920;49.594;11.022;2022-10-29T03:53:37;13.23;;;5.73;;
9761;SDS011;4920;49.594;11.022;2022-10-29T03:56:05;10.40;;;5.37;;
9761;SDS011;4920;49.594;11.022;2022-10-29T03:58:35;9.80;;;5.47;;
9761;SDS011;4920;49.594;11.022;2022-10-29T04:01:04;11.93;;;5.13;;
9761;SDS011;4920;49.594;11.022;2022-10-29T04:03:35;13.57;;;5.30;;
9761;SDS011;4920;49.594;11.022;2022-10-29T04:06:10;13.40;;;5.53;;
9761;SDS011;4920;49.594;11.022;2022-10-29T04:08:39;8.27;;;5.60;;
9761;SDS011;4920;49.594;11.022;2022-10-29T04:11:09;9.67;;;5.83;;
9761;SDS011;4920;49.594;11.022;2022-10-29T04:13:38;10.97;;;5.40;;
9761;SDS011;4920;49.594;11.022;2022-10-29T04:16:06;12.57;;;5.70;;
9761;SDS011;4920;49.594;11.022;2022-10-29T04:18:36;8.83;;;5.77;;
9761;SDS011;4920;49.594;11.022;2022-10-29T04:21:04;11.23;;;5.90;;
9761;SDS011;4920;49.594;11.022;2022-10-29T04:23:53;7.93;;;5.20;;
9761;SDS011;4920;49.594;11.022;2022-10-29T04:26:41;12.50;;;6.10;;
9761;SDS011;4920;49.594;11.022;2022-10-29T04:29:30;10.63;;;5.83;;
9761;SDS011;4920;49.594;11.022;2022-10-29T04:31:58;12.07;;;5.90;;
9761;SDS011;4920;49.594;11.022;2022-10-29T04:34:28;13.97;;;5.80;;
9761;SDS011;4920;49.594;11.022;2022-10-29T04:36:56;10.30;;;5.33;;
9761;SDS011;4920;49.594;11.022;2022-10-29T04:39:24;9.70;;;5.80;;
9761;SDS011;4920;49.594;11.022;2022-10-29T04:41:52;12.33;;;5.67;;
9761;SDS011;4920;49.594;11.022;2022-10-29T04:44:20;11.20;;;5.60;;
9761;SDS011;4920;49.594;11.022;2022-10-29T04:46:49;11.03;;;6.20;;
9761;SDS011;4920;49.594;11.022;2022-10-29T04:49:22;10.57;;;6.07;;
9761;SDS011;4920;49.594;11.022;2022-10-29T04:51:52;14.33;;;6.10;;
9761;SDS011;4920;49.594;11.022;2022-10-29T04:54:20;11.73;;;5.90;;
9761;SDS011;4920;49.594;11.022;2022-10-29T04:56:48;11.37;;;5.77;;
9761;SDS011;4920;49.594;11.022;2022-10-29T04:59:16;12.87;;;6.33;;
9761;SDS011;4920;49.594;11.022;2022-10-29T05:01:44;12.27;;;6.00;;
9761;SDS011;4920;49.594;11.022;2022-10-29T05:04:12;11.53;;;5.83;;
9761;SDS011;4920;49.594;11.022;2022-10-29T05:06:41;10.27;;;5.90;;
9761;SDS011;4920;49.594;11.022;2022-10-29T05:09:10;13.93;;;5.97;;
9761;SDS011;4920;49.594;11.022;2022-10-29T05:11:38;17.97;;;6.03;;
9761;SDS011;4920;49.594;11.022;2022-10-29T05:14:07;13.33;;;6.00;;
9761;SDS011;4920;49.594;11.022;2022-10-29T05:16:35;12.50;;;5.57;;
9761;SDS011;4920;49.594;11.022;2022-10-29T05:19:03;11.50;;;5.70;;
9761;SDS011;4920;49.594;11.022;2022-10-29T05:21:32;13.00;;;5.27;;
9761;SDS011;4920;49.594;11.022;2022-10-29T05:24:00;9.87;;;5.50;;
9761;SDS011;4920;49.594;11.022;2022-10-29T05:26:30;14.00;;;5.80;;
9761;SDS011;4920;49.594;11.022;2022-10-29T05:28:59;10.60;;;5.37;;
9761;SDS011;4920;49.594;11.022;2022-10-29T05:31:27;9.20;;;5.60;;
9761;SDS011;4920;49.594;11.022;2022-10-29T05:33:55;9.37;;;5.37;;
9761;SDS011;4920;49.594;11.022;2022-10-29T05:36:23;10.97;;;5.50;;
9761;SDS011;4920;49.594;11.022;2022-10-29T05:38:51;10.87;;;5.60;;
9761;SDS011;4920;49.594;11.022;2022-10-29T05:41:20;7.60;;;5.47;;
9761;SDS011;4920;49.594;11.022;2022-10-29T05:43:49;12.90;;;5.37;;
9761;SDS011;4920;49.594;11.022;2022-10-29T05:46:18;11.37;;;5.67;;
9761;SDS011;4920;49.594;11.022;2022-10-29T05:48:46;11.17;;;5.67;;
9761;SDS011;4920;49.594;11.022;2022-10-29T05:51:14;12.27;;;5.40;;
9761;SDS011;4920;49.594;11.022;2022-10-29T05:53:42;9.43;;;5.67;;
9761;SDS011;4920;49.594;11.022;2022-10-29T05:56:10;12.73;;;5.60;;
9761;SDS011;4920;49.594;11.022;2022-10-29T05:58:38;10.83;;;6.13;;
9761;SDS011;4920;49.594;11.022;2022-10-29T06:01:12;12.00;;;6.17;;
9761;SDS011;4920;49.594;11.022;2022-10-29T06:07:23;11.30;;;5.80;;
9761;SDS011;4920;49.594;11.022;2022-10-29T06:09:52;11.87;;;5.90;;
9761;SDS011;4920;49.594;11.022;2022-10-29T06:12:20;12.37;;;5.77;;
9761;SDS011;4920;49.594;11.022;2022-10-29T06:17:49;11.80;;;5.70;;
9761;SDS011;4920;49.594;11.022;2022-10-29T06:24:01;12.03;;;5.50;;
9761;SDS011;4920;49.594;11.022;2022-10-29T06:26:30;11.73;;;5.30;;
9761;SDS011;4920;49.594;11.022;2022-10-29T06:28:59;14.83;;;5.60;;
9761;SDS011;4920;49.594;11.022;2022-10-29T06:31:27;11.20;;;5.17;;
9761;SDS011;4920;49.594;11.022;2022-10-29T06:33:57;7.77;;;5.33;;
9761;SDS011;4920;49.594;11.022;2022-10-29T06:36:25;14.07;;;5.57;;
9761;SDS011;4920;49.594;11.022;2022-10-29T06:38:53;11.77;;;6.07;;
9761;SDS011;4920;49.594;11.022;2022-10-29T06:41:21;10.17;;;5.73;;
9761;SDS011;4920;49.594;11.022;2022-10-29T06:46:45;9.33;;;5.30;;
9761;SDS011;4920;49.594;11.022;2022-10-29T06:49:15;10.17;;;5.70;;
9761;SDS011;4920;49.594;11.022;2022-10-29T06:51:43;10.80;;;5.90;;
9761;SDS011;4920;49.594;11.022;2022-10-29T06:54:11;10.37;;;5.90;;
9761;SDS011;4920;49.594;11.022;2022-10-29T06:59:33;13.87;;;5.70;;
9761;SDS011;4920;49.594;11.022;2022-10-29T07:02:01;12.77;;;5.83;;
9761;SDS011;4920;49.594;11.022;2022-10-29T07:04:31;10.47;;;5.80;;
9761;SDS011;4920;49.594;11.022;2022-10-29T07:06:59;9.87;;;5.93;;
9761;SDS011;4920;49.594;11.022;2022-10-29T07:09:27;10.07;;;5.40;;
9761;SDS011;4920;49.594;11.022;2022-10-29T07:12:01;12.47;;;5.93;;
9761;SDS011;4920;49.594;11.022;2022-10-29T07:14:30;10.30;;;5.67;;
9761;SDS011;4920;49.594;11.022;2022-10-29T07:16:58;13.43;;;5.93;;
9761;SDS011;4920;49.594;11.022;2022-10-29T07:19:26;10.43;;;5.70;;
9761;SDS011;4920;49.594;11.022;2022-10-29T07:24:49;15.43;;;6.00;;
9761;SDS011;4920;49.594;11.022;2022-10-29T07:27:20;11.80;;;5.80;;
9761;SDS011;4920;49.594;11.022;2022-10-29T07:29:48;11.70;;;5.80;;
9761;SDS011;4920;49.594;11.022;2022-10-29T07:32:16;12.43;;;5.97;;
9761;SDS011;4920;49.594;11.022;2022-10-29T07:34:44;9.63;;;5.70;;
9761;SDS011;4920;49.594;11.022;2022-10-29T07:37:13;12.20;;;5.60;;
9761;SDS011;4920;49.594;11.022;2022-10-29T07:39:42;14.17;;;5.67;;
9761;SDS011;4920;49.594;11.022;2022-10-29T07:42:15;13.13;;;5.50;;
9761;SDS011;4920;49.594;11.022;2022-10-29T07:44:44;13.27;;;5.33;;
9761;SDS011;4920;49.594;11.022;2022-10-29T07:47:12;15.67;;;5.60;;
9761;SDS011;4920;49.594;11.022;2022-10-29T07:49:40;13.33;;;5.80;;
9761;SDS011;4920;49.594;11.022;2022-10-29T07:52:08;10.47;;;5.87;;
9761;SDS011;4920;49.594;11.022;2022-10-29T07:54:37;10.13;;;5.97;;
9761;SDS011;4920;49.594;11.022;2022-10-29T07:57:07;12.33;;;5.90;;
9761;SDS011;4920;49.594;11.022;2022-10-29T07:59:35;13.53;;;6.10;;
9761;SDS011;4920;49.594;11.022;2022-10-29T08:02:03;12.97;;;5.90;;
9761;SDS011;4920;49.594;11.022;2022-10-29T08:04:32;15.73;;;6.17;;
9761;SDS011;4920;49.594;11.022;2022-10-29T08:07:00;10.57;;;5.40;;
9761;SDS011;4920;49.594;11.022;2022-10-29T08:09:28;13.60;;;5.70;;
9761;SDS011;4920;49.594;11.022;2022-10-29T08:11:56;12.47;;;5.53;;
9761;SDS011;4920;49.594;11.022;2022-10-29T08:14:26;11.03;;;5.33;;
9761;SDS011;4920;49.594;11.022;2022-10-29T08:16:54;8.23;;;5.57;;
9761;SDS011;4920;49.594;11.022;2022-10-29T08:19:23;12.77;;;5.63;;
9761;SDS011;4920;49.594;11.022;2022-10-29T08:21:51;10.98;;;5.38;;
9761;SDS011;4920;49.594;11.022;2022-10-29T08:24:19;15.80;;;5.78;;
9761;SDS011;4920;49.594;11.022;2022-10-29T08:26:48;10.35;;;5.28;;
9761;SDS011;4920;49.594;11.022;2022-10-29T08:29:16;11.00;;;5.95;;
9761;SDS011;4920;49.594;11.022;2022-10-29T08:31:46;13.10;;;5.72;;
9761;SDS011;4920;49.594;11.022;2022-10-29T08:34:14;16.42;;;5.93;;
9761;SDS011;4920;49.594;11.022;2022-10-29T08:36:42;10.82;;;5.60;;
9761;SDS011;4920;49.594;11.022;2022-10-29T08:39:11;13.93;;;5.60;;
9761;SDS011;4920;49.594;11.022;2022-10-29T08:41:43;12.40;;;5.70;;
9761;SDS011;4920;49.594;11.022;2022-10-29T08:44:31;10.63;;;5.30;;
9761;SDS011;4920;49.594;11.022;2022-10-29T08:47:16;14.35;;;5.80;;
9761;SDS011;4920;49.594;11.022;2022-10-29T08:49:49;8.38;;;5.97;;
9761;SDS011;4920;49.594;11.022;2022-10-29T08:52:28;9.32;;;5.65;;
9761;SDS011;4920;49.594;11.022;2022-10-29T08:55:04;11.65;;;5.28;;
9761;SDS011;4920;49.594;11.022;2022-10-29T08:57:40;10.35;;;5.32;;
9761;SDS011;4920;49.594;11.022;2022-10-29T09:00:13;11.65;;;5.32;;
9761;SDS011;4920;49.594;11.022;2022-10-29T09:02:45;11.82;;;5.22;;
9761;SDS011;4920;49.594;11.022;2022-10-29T09:05:13;11.27;;;5.20;;
9761;SDS011;4920;49.594;11.022;2022-10-29T09:07:50;10.98;;;5.40;;
9761;SDS011;4920;49.594;11.022;2022-10-29T09:10:31;11.95;;;5.68;;
9761;SDS011;4920;49.594;11.022;2022-10-29T09:13:10;13.77;;;5.65;;
9761;SDS011;4920;49.594;11.022;2022-10-29T09:16:00;12.15;;;5.50;;
9761;SDS011;4920;49.594;11.022;2022-10-29T09:18:47;10.45;;;5.57;;
9761;SDS011;4920;49.594;11.022;2022-10-29T09:21:31;13.52;;;5.70;;
9761;SDS011;4920;49.594;11.022;2022-10-29T09:24:09;9.70;;;5.80;;
9761;SDS011;4920;49.594;11.022;2022-10-29T09:26:43;16.45;;;6.43;;
9761;SDS011;4920;49.594;11.022;2022-10-29T09:29:26;11.57;;;6.20;;
9761;SDS011;4920;49.594;11.022;2022-10-29T09:32:02;13.82;;;5.93;;
9761;SDS011;4920;49.594;11.022;2022-10-29T09:34:39;11.32;;;6.10;;
9761;SDS011;4920;49.594;11.022;2022-10-29T09:37:12;14.40;;;5.82;;
9761;SDS011;4920;49.594;11.022;2022-10-29T09:39:43;11.10;;;6.03;;
9761;SDS011;4920;49.594;11.022;2022-10-29T09:42:15;12.38;;;6.10;;
9761;SDS011;4920;49.594;11.022;2022-10-29T09:44:49;10.57;;;5.38;;
9761;SDS011;4920;49.594;11.022;2022-10-29T09:47:26;14.90;;;5.82;;
9761;SDS011;4920;49.594;11.022;2022-10-29T09:50:06;11.27;;;5.53;;
9761;SDS011;4920;49.594;11.022;2022-10-29T09:52:42;11.50;;;5.78;;
9761;SDS011;4920;49.594;11.022;2022-10-29T09:55:14;8.25;;;5.15;;
9761;SDS011;4920;49.594;11.022;2022-10-29T09:57:47;11.63;;;5.18;;
9761;SDS011;4920;49.594;11.022;2022-10-29T10:00:18;9.95;;;4.97;;
9761;SDS011;4920;49.594;11.022;2022-10-29T10:02:49;13.90;;;5.35;;
9761;SDS011;4920;49.594;11.022;2022-10-29T10:05:26;8.43;;;4.78;;
9761;SDS011;4920;49.594;11.022;2022-10-29T10:08:06;12.68;;;4.90;;
9761;SDS011;4920;49.594;11.022;2022-10-29T10:10:37;14.63;;;4.60;;
9761;SDS011;4920;49.594;11.022;2022-10-29T10:13:17;8.88;;;4.53;;
9761;SDS011;4920;49.594;11.022;2022-10-29T10:15:53;8.88;;;4.28;;
9761;SDS011;4920;49.594;11.022;2022-10-29T10:18:23;10.70;;;4.15;;
9761;SDS011;4920;49.594;11.022;2022-10-29T10:21:05;11.43;;;4.32;;
9761;SDS011;4920;49.594;11.022;2022-10-29T10:23:38;11.23;;;4.78;;
9761;SDS011;4920;49.594;11.022;2022-10-29T10:26:25;12.45;;;4.20;;
9761;SDS011;4920;49.594;11.022;2022-10-29T10:29:03;10.70;;;4.28;;
9761;SDS011;4920;49.594;11.022;2022-10-29T10:31:36;10.85;;;4.20;;
9761;SDS011;4920;49.594;11.022;2022-10-29T10:34:08;8.23;;;3.92;;
9761;SDS011;4920;49.594;11.022;2022-10-29T10:36:44;10.38;;;4.10;;
9761;SDS011;4920;49.594;11.022;2022-10-29T10:39:22;10.57;;;3.92;;
9761;SDS011;4920;49.594;11.022;2022-10-29T10:41:54;10.38;;;4.05;;
9761;SDS011;4920;49.594;11.022;2022-10-29T10:44:24;8.50;;;3.60;;
9761;SDS011;4920;49.594;11.022;2022-10-29T10:46:54;12.27;;;4.25;;
9761;SDS011;4920;49.594;11.022;2022-10-29T10:49:29;14.68;;;10.30;;
9761;SDS011;4920;49.594;11.022;2022-10-29T10:52:02;14.75;;;6.40;;
9761;SDS011;4920;49.594;11.022;2022-10-29T10:54:33;11.50;;;4.07;;
9761;SDS011;4920;49.594;11.022;2022-10-29T10:57:04;10.00;;;4.22;;
9761;SDS011;4920;49.594;11.022;2022-10-29T10:59:49;14.20;;;4.28;;
9761;SDS011;4920;49.594;11.022;2022-10-29T11:02:30;10.40;;;3.95;;
9761;SDS011;4920;49.594;11.022;2022-10-29T11:05:05;11.75;;;4.50;;
9761;SDS011;4920;49.594;11.022;2022-10-29T11:07:44;11.23;;;3.78;;
9761;SDS011;4920;49.594;11.022;2022-10-29T11:10:17;9.23;;;3.92;;
9761;SDS011;4920;49.594;11.022;2022-10-29T11:12:51;9.45;;;4.20;;
9761;SDS011;4920;49.594;11.022;2022-10-29T11:15:25;14.65;;;3.78;;
9761;SDS011;4920;49.594;11.022;2022-10-29T11:18:03;11.73;;;4.50;;
9761;SDS011;4920;49.594;11.022;2022-10-29T11:20:39;10.82;;;4.03;;
9761;SDS011;4920;49.594;11.022;2022-10-29T11:23:25;18.50;;;4.30;;
9761;SDS011;4920;49.594;11.022;2022-10-29T11:26:01;10.90;;;3.70;;
9761;SDS011;4920;49.594;11.022;2022-10-29T11:28:37;15.50;;;4.50;;
9761;SDS011;4920;49.594;11.022;2022-10-29T11:31:09;11.93;;;4.28;;
9761;SDS011;4920;49.594;11.022;2022-10-29T11:33:45;15.85;;;4.30;;
9761;SDS011;4920;49.594;11.022;2022-10-29T11:36:20;15.52;;;4.60;;
9761;SDS011;4920;49.594;11.022;2022-10-29T11:38:53;11.32;;;4.20;;
9761;SDS011;4920;49.594;11.022;2022-10-29T11:41:28;16.15;;;4.80;;
9761;SDS011;4920;49.594;11.022;2022-10-29T11:44:01;15.82;;;4.47;;
9761;SDS011;4920;49.594;11.022;2022-10-29T11:46:34;13.82;;;4.43;;
9761;SDS011;4920;49.594;11.022;2022-10-29T11:49:17;11.85;;;4.28;;
9761;SDS011;4920;49.594;11.022;2022-10-29T11:51:59;12.80;;;4.75;;
9761;SDS011;4920;49.594;11.022;2022-10-29T11:54:41;11.05;;;4.90;;
9761;SDS011;4920;49.594;11.022;2022-10-29T11:57:18;14.05;;;4.53;;
9761;SDS011;4920;49.594;11.022;2022-10-29T12:00:06;15.90;;;4.72;;
9761;SDS011;4920;49.594;11.022;2022-10-29T12:02:46;16.23;;;4.82;;
9761;SDS011;4920;49.594;11.022;2022-10-29T12:05:34;17.50;;;4.97;;
9761;SDS011;4920;49.594;11.022;2022-10-29T12:08:12;13.20;;;4.70;;
9761;SDS011;4920;49.594;11.022;2022-10-29T12:10:49;11.10;;;4.60;;
9761;SDS011;4920;49.594;11.022;2022-10-29T12:13:29;13.65;;;4.50;;
9761;SDS011;4920;49.594;11.022;2022-10-29T12:16:09;15.75;;;4.75;;
9761;SDS011;4920;49.594;11.022;2022-10-29T12:18:50;13.73;;;4.78;;
9761;SDS011;4920;49.594;11.022;2022-10-29T12:21:27;15.88;;;4.82;;
9761;SDS011;4920;49.594;11.022;2022-10-29T12:24:05;17.55;;;4.82;;
9761;SDS011;4920;49.594;11.022;2022-10-29T12:26:44;9.00;;;4.40;;
9761;SDS011;4920;49.594;11.022;2022-10-29T12:29:19;13.90;;;4.53;;
9761;SDS011;4920;49.594;11.022;2022-10-29T12:31:55;15.13;;;4.85;;
9761;SDS011;4920;49.594;11.022;2022-10-29T12:34:31;13.48;;;4.35;;
9761;SDS011;4920;49.594;11.022;2022-10-29T12:37:07;14.65;;;4.85;;
9761;SDS011;4920;49.594;11.022;2022-10-29T12:39:42;15.93;;;4.85;;
9761;SDS011;4920;49.594;11.022;2022-10-29T12:42:16;10.13;;;4.40;;
9761;SDS011;4920;49.594;11.022;2022-10-29T12:44:51;17.95;;;4.90;;
9761;SDS011;4920;49.594;11.022;2022-10-29T12:47:31;13.20;;;4.82;;
9761;SDS011;4920;49.594;11.022;2022-10-29T12:50:08;13.60;;;4.25;;
9761;SDS011;4920;49.594;11.022;2022-10-29T12:52:52;9.75;;;4.63;;
9761;SDS011;4920;49.594;11.022;2022-10-29T12:55:24;13.63;;;4.50;;
9761;SDS011;4920;49.594;11.022;2022-10-29T12:57:54;12.82;;;4.45;;
9761;SDS011;4920;49.594;11.022;2022-10-29T13:06:43;14.70;;;4.65;;
9761;SDS011;4920;49.594;11.022;2022-10-29T13:09:14;11.82;;;4.40;;
9761;SDS011;4920;49.594;11.022;2022-10-29T13:11:46;9.80;;;4.47;;
9761;SDS011;4920;49.594;11.022;2022-10-29T13:14:18;11.43;;;4.00;;
9761;SDS011;4920;49.594;11.022;2022-10-29T13:16:51;14.52;;;4.53;;
9761;SDS011;4920;49.594;11.022;2022-10-29T13:19:22;11.63;;;4.57;;
9761;SDS011;4920;49.594;11.022;2022-10-29T13:43:34;12.65;;;4.20;;
9761;SDS011;4920;49.594;11.022;2022-10-29T13:49:14;12.10;;;3.92;;
9761;SDS011;4920;49.594;11.022;2022-10-29T13:51:49;10.80;;;4.30;;
9761;SDS011;4920;49.594;11.022;2022-10-29T13:54:26;12.95;;;4.07;;
9761;SDS011;4920;49.594;11.022;2022-10-29T13:56:58;12.82;;;4.00;;
9761;SDS011;4920;49.594;11.022;2022-10-29T13:59:33;9.88;;;4.07;;
9761;SDS011;4920;49.594;11.022;2022-10-29T14:02:17;14.25;;;3.90;;
9761;SDS011;4920;49.594;11.022;2022-10-29T14:04:54;11.35;;;4.60;;
9761;SDS011;4920;49.594;11.022;2022-10-29T14:07:27;13.63;;;4.20;;
9761;SDS011;4920;49.594;11.022;2022-10-29T14:10:05;12.43;;;3.85;;
9761;SDS011;4920;49.594;11.022;2022-10-29T14:12:39;12.68;;;4.10;;
9761;SDS011;4920;49.594;11.022;2022-10-29T14:15:09;10.80;;;4.07;;
9761;SDS011;4920;49.594;11.022;2022-10-29T14:17:40;14.88;;;3.97;;
9761;SDS011;4920;49.594;11.022;2022-10-29T14:20:20;13.05;;;4.50;;
9761;SDS011;4920;49.594;11.022;2022-10-29T14:22:50;15.75;;;4.63;;
9761;SDS011;4920;49.594;11.022;2022-10-29T14:25:24;13.40;;;4.43;;
9761;SDS011;4920;49.594;11.022;2022-10-29T14:28:12;12.90;;;4.05;;
9761;SDS011;4920;49.594;11.022;2022-10-29T14:30:43;9.60;;;4.07;;
9761;SDS011;4920;49.594;11.022;2022-10-29T14:36:04;11.68;;;4.50;;
9761;SDS011;4920;49.594;11.022;2022-10-29T14:38:37;16.00;;;4.68;;
9761;SDS011;4920;49.594;11.022;2022-10-29T14:41:09;12.05;;;4.32;;
9761;SDS011;4920;49.594;11.022;2022-10-29T14:43:38;12.98;;;3.95;;
9761;SDS011;4920;49.594;11.022;2022-10-29T14:46:11;12.82;;;4.70;;
9761;SDS011;4920;49.594;11.022;2022-10-29T14:48:57;13.45;;;4.22;;
9761;SDS011;4920;49.594;11.022;2022-10-29T14:51:30;10.68;;;4.30;;
9761;SDS011;4920;49.594;11.022;2022-10-29T14:54:03;11.18;;;4.38;;
9761;SDS011;4920;49.594;11.022;2022-10-29T14:56:34;11.43;;;4.13;;
9761;SDS011;4920;49.594;11.022;2022-10-29T14:59:07;12.25;;;4.90;;
9761;SDS011;4920;49.594;11.022;2022-10-29T15:01:48;10.23;;;4.57;;
9761;SDS011;4920;49.594;11.022;2022-10-29T15:04:26;12.63;;;4.75;;
9761;SDS011;4920;49.594;11.022;2022-10-29T15:10:01;12.20;;;4.35;;
9761;SDS011;4920;49.594;11.022;2022-10-29T15:12:42;11.57;;;5.00;;
9761;SDS011;4920;49.594;11.022;2022-10-29T15:15:20;12.05;;;4.82;;
9761;SDS011;4920;49.594;11.022;2022-10-29T15:17:50;12.05;;;5.30;;
9761;SDS011;4920;49.594;11.022;2022-10-29T15:20:23;14.20;;;4.57;;
9761;SDS011;4920;49.594;11.022;2022-10-29T15:22:56;12.40;;;4.63;;
9761;SDS011;4920;49.594;11.022;2022-10-29T15:25:26;12.90;;;4.57;;
9761;SDS011;4920;49.594;11.022;2022-10-29T15:27:57;9.05;;;4.50;;
9761;SDS011;4920;49.594;11.022;2022-10-29T15:30:28;10.55;;;4.40;;
9761;SDS011;4920;49.594;11.022;2022-10-29T15:32:59;9.55;;;4.32;;
9761;SDS011;4920;49.594;11.022;2022-10-29T15:35:33;10.60;;;4.53;;
9761;SDS011;4920;49.594;11.022;2022-10-29T15:38:04;17.83;;;5.30;;
9761;SDS011;4920;49.594;11.022;2022-10-29T15:40:44;11.70;;;4.68;;
9761;SDS011;4920;49.594;11.022;2022-10-29T15:43:46;11.55;;;4.80;;
9761;SDS011;4920;49.594;11.022;2022-10-29T15:46:19;13.73;;;4.57;;
9761;SDS011;4920;49.594;11.022;2022-10-29T15:48:48;13.88;;;5.10;;
9761;SDS011;4920;49.594;11.022;2022-10-29T15:51:17;13.25;;;4.88;;
9761;SDS011;4920;49.594;11.022;2022-10-29T15:53:50;14.60;;;5.40;;
9761;SDS011;4920;49.594;11.022;2022-10-29T15:56:18;12.35;;;5.57;;
9761;SDS011;4920;49.594;11.022;2022-10-29T15:58:47;12.88;;;4.93;;
9761;SDS011;4920;49.594;11.022;2022-10-29T16:01:15;12.43;;;4.82;;
9761;SDS011;4920;49.594;11.022;2022-10-29T16:03:43;12.73;;;5.38;;
9761;SDS011;4920;49.594;11.022;2022-10-29T16:06:12;11.35;;;5.30;;
9761;SDS011;4920;49.594;11.022;2022-10-29T16:08:43;13.38;;;5.40;;
9761;SDS011;4920;49.594;11.022;2022-10-29T16:11:17;13.07;;;5.75;;
9761;SDS011;4920;49.594;11.022;2022-10-29T16:13:46;13.75;;;5.53;;
9761;SDS011;4920;49.594;11.022;2022-10-29T16:16:21;12.60;;;5.75;;
9761;SDS011;4920;49.594;11.022;2022-10-29T16:18:50;14.15;;;5.80;;